Capt Al Devall — WCW9164 — position and weather

sailwx.info

Track history (hours):
 
Tides and Currents Weather Stations Pressure Air Temp Water Temp Dewpoint Dewpoint Depression Visibility Wind Speed Wind Dir Waves Ship Positions

Capt Al Devall

Owner: J & J DEVALL MARITIME MARINE OPERATORS, Sulphur, LA. More information available from US FCC via Universal Licensing System and Coast Guard Vessel Documentation Center.

Last reported at 2019-Feb-19 02:31 UTC. Time now 2019-Feb-20 18:40 UTC.
Position N 29°36' W 094°24'.

; draft 3 m.

Type: Towing. MMSI: 366972270.

Date/timePositionNaut miles runAvg speedWind from/ knotsBaromVisibWave heightAir tempDewpointWater temp
2019-Feb-19 02:31N 29°36' W 094°24'1 5.8
2019-Feb-19 02:22N 29°36' W 094°23'2 5.6
2019-Feb-19 01:58N 29°37' W 094°21'3 6.1
2019-Feb-19 01:30N 29°38' W 094°18'3 6.3
2019-Feb-19 01:00N 29°40' W 094°15'3 6.6
2019-Feb-19 00:30N 29°41' W 094°11'3 6.7
2019-Feb-19 00:00N 29°43' W 094°08'4 7.2
2019-Feb-18 23:30N 29°45' W 094°05'4 7.3
2019-Feb-18 23:00N 29°47' W 094°01'3 6.4
2019-Feb-18 22:30N 29°49' W 093°59'0 0.7
2019-Feb-18 21:59N 29°49' W 093°58'0 0.0
2019-Feb-18 21:29N 29°49' W 093°58'0 0.0
2019-Feb-18 20:59N 29°49' W 093°58'1 1.6
2019-Feb-18 20:31N 29°50' W 093°57'3 6.0
2019-Feb-18 20:01N 29°52' W 093°56'3 6.9
2019-Feb-18 19:31N 29°55' W 093°53'3 6.1
2019-Feb-18 19:01N 29°58' W 093°51'3 5.9
2019-Feb-18 18:31N 29°59' W 093°48'4 7.5
2019-Feb-18 18:00N 30°01' W 093°45'2 4.1
2019-Feb-18 17:28N 30°03' W 093°44'0 0.1
2019-Feb-18 16:35N 30°03' W 093°44'0 0.1
2019-Feb-18 16:16N 30°03' W 093°44'0 0.0
2019-Feb-18 15:49N 30°03' W 093°44'0 0.0
2019-Feb-18 15:01N 30°03' W 093°44'0 0.0
2019-Feb-18 14:58N 30°03' W 093°44'0 0.0
2019-Feb-18 14:13N 30°03' W 093°44'0 0.0
2019-Feb-18 13:46N 30°03' W 093°44'0 0.0
2019-Feb-18 13:28N 30°03' W 093°44'0 0.0
2019-Feb-18 13:00N 30°03' W 093°44'0 0.0
2019-Feb-18 12:24N 30°03' W 093°44'0 0.0
2019-Feb-18 12:00N 30°03' W 093°44'0 0.0
2019-Feb-18 11:18N 30°03' W 093°44'0 0.0
2019-Feb-18 11:00N 30°03' W 093°44'0 0.0
2019-Feb-18 10:24N 30°03' W 093°44'0 0.0
2019-Feb-18 09:48N 30°03' W 093°44'0 0.0
2019-Feb-18 08:54N 30°03' W 093°44'0 0.0
2019-Feb-18 08:30N 30°03' W 093°44'0 0.0
2019-Feb-18 07:42N 30°03' W 093°44'0 0.0
2019-Feb-18 07:30N 30°03' W 093°44'0 0.0
2019-Feb-18 07:00N 30°03' W 093°44'0 0.0
2019-Feb-18 06:27N 30°03' W 093°44'0 0.0
2019-Feb-18 05:42N 30°03' W 093°44'0 0.0
2019-Feb-18 05:24N 30°03' W 093°44'0 0.0
2019-Feb-18 04:54N 30°03' W 093°44'0 0.2
2019-Feb-18 04:24N 30°03' W 093°44'0 0.0
2019-Feb-18 04:00N 30°03' W 093°44'0 0.0
2019-Feb-18 03:15N 30°03' W 093°44'0 0.0
2019-Feb-18 02:54N 30°03' W 093°44'0 0.0
2019-Feb-18 02:30N 30°03' W 093°44'0 0.0
2019-Feb-18 02:00N 30°03' W 093°44'0 0.0
2019-Feb-18 01:27N 30°03' W 093°44'0 0.0
2019-Feb-18 00:54N 30°03' W 093°44'0 0.0
2019-Feb-18 00:30N 30°03' W 093°44'0 0.0
2019-Feb-17 23:51N 30°03' W 093°44'0 0.0
2019-Feb-17 23:27N 30°03' W 093°44'0 0.0
2019-Feb-17 23:00N 30°03' W 093°44'0 0.0
2019-Feb-17 22:30N 30°03' W 093°44'0 0.0
2019-Feb-17 21:54N 30°03' W 093°44'0 0.0
2019-Feb-17 21:30N 30°03' W 093°44'0 0.0
2019-Feb-17 21:00N 30°03' W 093°44'0 0.0
2019-Feb-17 20:27N 30°03' W 093°44'1 1.2
2019-Feb-17 20:00N 30°04' W 093°45'1 0.8
2019-Feb-17 19:20N 30°03' W 093°44'0 0.2
2019-Feb-17 18:59N 30°03' W 093°44'0 0.2
2019-Feb-17 18:28N 30°03' W 093°44'0 0.0
2019-Feb-17 17:49N 30°03' W 093°44'0 0.0
2019-Feb-17 17:25N 30°03' W 093°44'0 0.0
2019-Feb-17 16:58N 30°03' W 093°44'0 0.0
2019-Feb-17 16:28N 30°03' W 093°44'0 0.0
2019-Feb-17 15:49N 30°03' W 093°44'0 0.0
2019-Feb-17 15:19N 30°03' W 093°44'0 0.0
2019-Feb-17 14:58N 30°03' W 093°44'0 0.0
2019-Feb-17 14:28N 30°03' W 093°44'0 0.0
2019-Feb-17 13:58N 30°03' W 093°44'0 0.0
2019-Feb-17 13:19N 30°03' W 093°44'0 0.0
2019-Feb-17 12:01N 30°03' W 093°44'0 0.1
2019-Feb-17 11:58N 30°03' W 093°44'0 0.0
2019-Feb-17 11:04N 30°03' W 093°44'0 0.0
2019-Feb-17 10:28N 30°03' W 093°44'0 0.0
2019-Feb-17 09:40N 30°03' W 093°44'0 0.0
2019-Feb-17 09:07N 30°03' W 093°44'0 0.0
2019-Feb-17 08:22N 30°03' W 093°44'0 0.0
2019-Feb-17 07:58N 30°03' W 093°44'0 0.0
2019-Feb-17 07:22N 30°03' W 093°44'0 0.0
2019-Feb-17 06:55N 30°03' W 093°44'0 0.0
2019-Feb-17 06:01N 30°03' W 093°44'0 0.0
2019-Feb-17 05:49N 30°03' W 093°44'0 0.0
2019-Feb-17 05:19N 30°03' W 093°44'0 0.0
2019-Feb-17 04:22N 30°03' W 093°44'0 0.0
2019-Feb-17 03:46N 30°03' W 093°44'0 0.0
2019-Feb-17 03:28N 30°03' W 093°44'0 0.0
2019-Feb-17 02:52N 30°03' W 093°44'0 0.0
2019-Feb-17 02:25N 30°03' W 093°44'0 0.0
2019-Feb-17 01:49N 30°03' W 093°44'0 0.0
2019-Feb-17 01:22N 30°03' W 093°44'0 0.0
2019-Feb-17 00:52N 30°03' W 093°44'0 0.0
2019-Feb-17 00:04N 30°03' W 093°44'0 0.0
2019-Feb-16 23:55N 30°03' W 093°44'0 0.0
2019-Feb-16 23:28N 30°03' W 093°44'0 0.0
2019-Feb-16 22:52N 30°03' W 093°44'0 0.1
2019-Feb-16 22:01N 30°03' W 093°44'0 0.0
2019-Feb-16 21:58N 30°03' W 093°44'0 0.0
2019-Feb-16 21:22N 30°03' W 093°44'0 0.0
2019-Feb-16 20:55N 30°03' W 093°44'0 0.0
2019-Feb-16 20:28N 30°03' W 093°44'0 0.0
2019-Feb-16 19:55N 30°03' W 093°44'0 0.0
2019-Feb-16 19:28N 30°03' W 093°44'0 0.0
2019-Feb-16 18:55N 30°03' W 093°44'0 0.0
2019-Feb-16 18:28N 30°03' W 093°44'0 0.0
2019-Feb-16 17:58N 30°03' W 093°44'0 0.0
2019-Feb-16 17:10N 30°03' W 093°44'0 0.0
2019-Feb-16 16:58N 30°03' W 093°44'0 0.0
2019-Feb-16 16:25N 30°03' W 093°44'0 0.0
2019-Feb-16 15:55N 30°03' W 093°44'0 0.0
2019-Feb-16 15:28N 30°03' W 093°44'0 0.0
2019-Feb-16 14:58N 30°03' W 093°44'0 0.0
2019-Feb-16 14:28N 30°03' W 093°44'0 0.0
2019-Feb-16 13:58N 30°03' W 093°44'0 0.0
2019-Feb-16 13:25N 30°03' W 093°44'0 0.0
2019-Feb-16 12:55N 30°03' W 093°44'0 0.0
2019-Feb-16 12:28N 30°03' W 093°44'0 0.0
2019-Feb-16 11:52N 30°03' W 093°44'0 0.0
2019-Feb-16 11:28N 30°03' W 093°44'0 0.0
2019-Feb-16 10:58N 30°03' W 093°44'0 0.0
2019-Feb-16 10:28N 30°03' W 093°44'0 0.0
2019-Feb-16 09:58N 30°03' W 093°44'0 0.0
2019-Feb-16 09:28N 30°03' W 093°44'0 0.0
2019-Feb-16 08:58N 30°03' W 093°44'0 0.0
2019-Feb-16 08:22N 30°03' W 093°44'0 0.0
2019-Feb-16 07:58N 30°03' W 093°44'0 0.0
2019-Feb-16 07:28N 30°03' W 093°44'0 0.0
2019-Feb-16 06:58N 30°03' W 093°44'0 0.0
2019-Feb-16 06:25N 30°03' W 093°44'0 0.0
2019-Feb-16 05:58N 30°03' W 093°44'0 0.0
2019-Feb-16 05:25N 30°03' W 093°44'0 0.0
2019-Feb-16 04:55N 30°03' W 093°44'0 0.0
2019-Feb-16 04:25N 30°03' W 093°44'0 0.0
2019-Feb-16 03:37N 30°03' W 093°44'0 0.0
2019-Feb-16 03:28N 30°03' W 093°44'0 0.0
2019-Feb-16 02:55N 30°03' W 093°44'0 0.0
2019-Feb-16 02:25N 30°03' W 093°44'0 0.0
2019-Feb-16 01:55N 30°03' W 093°44'0 0.0
2019-Feb-16 01:25N 30°03' W 093°44'0 0.1
2019-Feb-16 00:46N 30°03' W 093°44'0 0.2
2019-Feb-16 00:29N 30°03' W 093°44'1 1.1
2019-Feb-15 23:49N 30°04' W 093°45'0 0.0
2019-Feb-15 23:13N 30°04' W 093°45'0 0.0
2019-Feb-15 22:49N 30°04' W 093°45'0 0.0
2019-Feb-15 22:01N 30°04' W 093°45'0 0.0
2019-Feb-15 21:37N 30°04' W 093°45'0 0.5
2019-Feb-15 21:20N 30°04' W 093°45'1 1.1
2019-Feb-15 20:46N 30°03' W 093°44'0 0.0
2019-Feb-15 20:19N 30°03' W 093°44'0 0.0
2019-Feb-15 19:52N 30°03' W 093°44'0 0.0
2019-Feb-15 19:25N 30°03' W 093°44'0 0.0
2019-Feb-15 18:58N 30°03' W 093°44'0 0.0
2019-Feb-15 18:22N 30°03' W 093°44'0 0.0
2019-Feb-15 17:46N 30°03' W 093°44'0 0.0
2019-Feb-15 17:19N 30°03' W 093°44'0 0.0
2019-Feb-15 16:58N 30°03' W 093°44'0 0.0
2019-Feb-15 16:22N 30°03' W 093°44'0 0.0
2019-Feb-15 15:58N 30°03' W 093°44'1 1.3
2019-Feb-15 15:30N 30°04' W 093°45'1 1.1
2019-Feb-15 14:57N 30°03' W 093°44'0 0.5
2019-Feb-15 14:29N 30°04' W 093°44'0 0.4
2019-Feb-15 13:58N 30°03' W 093°44'0 0.0
2019-Feb-15 13:25N 30°03' W 093°44'0 0.0
2019-Feb-15 12:55N 30°03' W 093°44'0 0.0
2019-Feb-15 12:22N 30°03' W 093°44'0 0.0
2019-Feb-15 11:55N 30°03' W 093°44'0 0.0
2019-Feb-15 11:28N 30°03' W 093°44'0 0.0
2019-Feb-15 10:58N 30°03' W 093°44'0 0.0
2019-Feb-15 10:28N 30°03' W 093°44'0 0.0
2019-Feb-15 09:40N 30°03' W 093°44'0 0.0
2019-Feb-15 09:28N 30°03' W 093°44'0 0.0
2019-Feb-15 08:22N 30°03' W 093°44'0 0.0
2019-Feb-15 07:49N 30°03' W 093°44'0 0.1
2019-Feb-15 06:36N 30°03' W 093°44'1 4.9
2019-Feb-15 06:29N 30°03' W 093°44'3 7.0
2019-Feb-15 06:00N 30°04' W 093°40'4 7.1
2019-Feb-15 05:30N 30°04' W 093°36'3 6.8
2019-Feb-15 05:00N 30°04' W 093°32'3 6.3
2019-Feb-15 04:30N 30°04' W 093°28'3 5.3
2019-Feb-15 04:00N 30°04' W 093°25'3 5.6
2019-Feb-15 03:30N 30°04' W 093°22'0 0.2
2019-Feb-15 03:00N 30°04' W 093°22'3 5.2
2019-Feb-15 02:30N 30°04' W 093°25'3 5.3
2019-Feb-15 02:00N 30°04' W 093°28'4 7.1
2019-Feb-15 01:30N 30°04' W 093°32'4 7.5
2019-Feb-15 01:01N 30°04' W 093°37'4 8.2
2019-Feb-15 00:30N 30°04' W 093°41'3 6.1
2019-Feb-15 00:00N 30°04' W 093°45'0 0.1
2019-Feb-14 23:30N 30°04' W 093°45'1 1.1
2019-Feb-14 22:56N 30°03' W 093°44'0 0.2
2019-Feb-14 22:29N 30°03' W 093°44'0 0.0
2019-Feb-14 21:56N 30°03' W 093°44'0 0.0
2019-Feb-14 21:26N 30°03' W 093°44'0 0.0
2019-Feb-14 20:56N 30°03' W 093°44'0 0.0
2019-Feb-14 19:56N 30°03' W 093°44'1 0.8
2019-Feb-14 19:04N 30°04' W 093°45'1 2.9
2019-Feb-14 18:50N 30°03' W 093°44'0 0.0
2019-Feb-14 18:26N 30°03' W 093°44'0 0.0
2019-Feb-14 17:50N 30°03' W 093°44'0 0.0
2019-Feb-14 17:26N 30°03' W 093°44'0 0.0
2019-Feb-14 16:47N 30°03' W 093°44'0 0.0
2019-Feb-14 16:26N 30°03' W 093°44'0 0.0
2019-Feb-14 15:59N 30°03' W 093°44'0 0.0
2019-Feb-14 15:26N 30°03' W 093°44'0 0.0
2019-Feb-14 14:59N 30°03' W 093°44'0 0.0
2019-Feb-14 14:29N 30°03' W 093°44'0 0.0
2019-Feb-14 13:59N 30°03' W 093°44'0 0.1
2019-Feb-14 13:29N 30°03' W 093°44'1 1.5
2019-Feb-14 12:59N 30°04' W 093°45'0 0.0
2019-Feb-14 12:29N 30°04' W 093°45'0 0.0
2019-Feb-14 11:56N 30°04' W 093°45'0 0.0
2019-Feb-14 11:29N 30°04' W 093°45'0 0.0
2019-Feb-14 10:56N 30°04' W 093°45'0 0.0
2019-Feb-14 10:29N 30°04' W 093°45'0 0.0
2019-Feb-14 09:56N 30°04' W 093°45'0 0.0
2019-Feb-14 09:26N 30°04' W 093°45'0 0.0
2019-Feb-14 08:53N 30°04' W 093°45'0 0.0
2019-Feb-14 08:29N 30°04' W 093°45'0 0.0
2019-Feb-14 07:53N 30°04' W 093°45'0 0.0
2019-Feb-14 07:29N 30°04' W 093°45'1 1.1
2019-Feb-14 06:52N 30°03' W 093°44'2 4.2
2019-Feb-14 06:29N 30°02' W 093°44'3 6.8
2019-Feb-14 06:01N 29°60' W 093°47'4 7.2
2019-Feb-14 05:30N 29°58' W 093°51'3 6.7
2019-Feb-14 05:00N 29°55' W 093°53'4 7.5
2019-Feb-14 04:30N 29°53' W 093°56'3 7.0
2019-Feb-14 04:01N 29°50' W 093°58'5 5.4
2019-Feb-14 03:01N 29°46' W 094°03'3 6.3
2019-Feb-14 02:30N 29°44' W 094°05'3 6.3
2019-Feb-14 02:01N 29°42' W 094°08'3 6.1
2019-Feb-14 01:31N 29°41' W 094°11'3 6.2
2019-Feb-14 01:00N 29°40' W 094°15'3 6.0
2019-Feb-14 00:30N 29°38' W 094°18'3 4.7
2019-Feb-13 23:54N 29°37' W 094°21'2 5.5
2019-Feb-13 23:27N 29°36' W 094°23'25 6.1
2019-Feb-13 19:24N 29°22' W 094°47'2 4.1
2019-Feb-13 19:00N 29°23' W 094°49'5 5.8
2019-Feb-13 18:05N 29°28' W 094°51'0 6.2
2019-Feb-13 18:00N 29°28' W 094°51'3 6.2
2019-Feb-13 17:30N 29°31' W 094°53'3 6.2
2019-Feb-13 17:01N 29°34' W 094°55'3 6.7
2019-Feb-13 16:30N 29°37' W 094°57'3 6.4
2019-Feb-13 16:01N 29°37' W 095°01'0 0.6
2019-Feb-13 15:29N 29°36' W 095°01'0 0.0
2019-Feb-13 14:59N 29°36' W 095°01'0 0.0
2019-Feb-13 14:29N 29°36' W 095°01'0 0.0
2019-Feb-13 13:59N 29°36' W 095°01'0 0.0
2019-Feb-13 13:29N 29°36' W 095°01'0 0.1
2019-Feb-13 12:50N 29°36' W 095°01'0 0.1
2019-Feb-13 12:11N 29°36' W 095°01'0 0.0
2019-Feb-13 11:59N 29°36' W 095°01'0 0.0
2019-Feb-13 11:29N 29°36' W 095°01'0 0.0
2019-Feb-13 10:53N 29°36' W 095°01'0 0.0
2019-Feb-13 10:26N 29°36' W 095°01'0 0.0
2019-Feb-13 09:59N 29°36' W 095°01'0 0.0
2019-Feb-13 09:29N 29°36' W 095°01'0 0.0
2019-Feb-13 08:56N 29°36' W 095°01'0 0.0
2019-Feb-13 08:29N 29°36' W 095°01'0 0.0
2019-Feb-13 07:59N 29°36' W 095°01'0 0.0
2019-Feb-13 07:29N 29°36' W 095°01'0 0.0
2019-Feb-13 06:59N 29°36' W 095°01'0 0.0
2019-Feb-13 06:29N 29°36' W 095°01'0 0.0
2019-Feb-13 05:59N 29°36' W 095°01'0 0.0
2019-Feb-13 05:29N 29°36' W 095°01'0 0.0
2019-Feb-13 04:59N 29°36' W 095°01'0 0.0
2019-Feb-13 04:29N 29°36' W 095°01'0 0.0
2019-Feb-13 03:59N 29°36' W 095°01'0 0.0
2019-Feb-13 03:29N 29°36' W 095°01'0 0.0
2019-Feb-13 02:59N 29°36' W 095°01'0 0.0
2019-Feb-13 02:26N 29°36' W 095°01'0 0.0
2019-Feb-13 01:56N 29°36' W 095°01'0 0.0
2019-Feb-13 01:29N 29°36' W 095°01'0 0.0
2019-Feb-13 00:59N 29°36' W 095°01'0 0.0
2019-Feb-13 00:29N 29°36' W 095°01'0 0.0
2019-Feb-12 23:59N 29°36' W 095°01'0 0.0
2019-Feb-12 23:29N 29°36' W 095°01'0 0.0
2019-Feb-12 22:56N 29°36' W 095°01'0 0.0
2019-Feb-12 22:29N 29°36' W 095°01'0 0.0
2019-Feb-12 21:59N 29°36' W 095°01'0 0.0
2019-Feb-12 21:26N 29°36' W 095°01'0 0.0
2019-Feb-12 20:59N 29°36' W 095°01'0 0.0
2019-Feb-12 20:29N 29°36' W 095°01'0 0.0
2019-Feb-12 19:59N 29°36' W 095°01'0 0.0
2019-Feb-12 19:29N 29°36' W 095°01'0 0.0
2019-Feb-12 18:59N 29°36' W 095°01'0 0.0
2019-Feb-12 18:29N 29°36' W 095°01'0 0.0
2019-Feb-12 17:59N 29°36' W 095°01'0 0.5
2019-Feb-12 17:28N 29°37' W 095°01'2 4.9
2019-Feb-12 17:00N 29°37' W 094°58'3 6.0
2019-Feb-12 16:27N 29°35' W 094°56'5 6.8
2019-Feb-12 15:45N 29°31' W 094°53'8 6.5
2019-Feb-12 14:34N 29°24' W 094°49'1 6.0
2019-Feb-12 14:29N 29°23' W 094°49'2 4.4
2019-Feb-12 13:59N 29°23' W 094°46'2 0.6
2019-Feb-12 10:58N 29°24' W 094°45'0 0.0
2019-Feb-12 09:34N 29°24' W 094°45'0 0.1
2019-Feb-12 09:28N 29°24' W 094°45'0 0.0
2019-Feb-12 02:28N 29°24' W 094°45'0 0.0
2019-Feb-11 23:52N 29°24' W 094°45'0 0.0
2019-Feb-11 14:56N 29°25' W 094°44'0 0.0
2019-Feb-11 14:26N 29°25' W 094°44'0 0.0
2019-Feb-11 03:58N 29°25' W 094°44'11 0.9
2019-Feb-10 14:55N 29°30' W 094°33'2 4.3
2019-Feb-10 14:28N 29°31' W 094°31'3 1.6
2019-Feb-10 12:42N 29°33' W 094°28'1 3.9
2019-Feb-10 12:24N 29°34' W 094°28'2 4.4
2019-Feb-10 12:00N 29°34' W 094°26'2 3.7
2019-Feb-10 11:30N 29°36' W 094°25'2 3.0
2019-Feb-10 10:42N 29°36' W 094°22'0 0.0
2019-Feb-10 10:30N 29°36' W 094°22'0 0.1
2019-Feb-10 10:00N 29°36' W 094°22'0 0.4
2019-Feb-10 09:30N 29°36' W 094°22'1 2.9
2019-Feb-10 09:00N 29°37' W 094°20'2 4.6
2019-Feb-10 08:30N 29°38' W 094°18'3 5.7
2019-Feb-10 08:00N 29°39' W 094°15'3 6.1
2019-Feb-10 07:30N 29°41' W 094°12'3 5.1
2019-Feb-10 07:00N 29°42' W 094°09'1 2.0
2019-Feb-10 06:30N 29°42' W 094°08'3 6.3
2019-Feb-10 06:00N 29°44' W 094°05'3 6.3
2019-Feb-10 05:30N 29°46' W 094°03'2 4.9
2019-Feb-10 05:00N 29°48' W 094°00'2 4.3
2019-Feb-10 04:30N 29°49' W 093°59'0 0.2
2019-Feb-10 04:00N 29°49' W 093°58'1 2.2
2019-Feb-10 03:30N 29°50' W 093°57'3 5.4
2019-Feb-10 03:00N 29°52' W 093°56'3 6.4
2019-Feb-10 02:30N 29°55' W 093°54'3 6.6
2019-Feb-10 02:00N 29°57' W 093°52'2 4.5
2019-Feb-10 01:30N 29°59' W 093°49'3 6.7
2019-Feb-10 01:01N 30°00' W 093°46'3 6.4
2019-Feb-10 00:30N 30°03' W 093°44'1 1.2
2019-Feb-09 23:59N 30°03' W 093°44'0 0.1
2019-Feb-09 23:31N 30°03' W 093°44'0 0.1
2019-Feb-09 22:59N 30°03' W 093°44'0 0.0
2019-Feb-09 22:29N 30°03' W 093°44'0 0.0
2019-Feb-09 21:59N 30°03' W 093°44'0 0.0
2019-Feb-09 21:29N 30°03' W 093°44'0 0.0
2019-Feb-09 20:59N 30°03' W 093°44'0 0.0
2019-Feb-09 20:29N 30°03' W 093°44'0 0.0
2019-Feb-09 19:59N 30°03' W 093°44'0 0.0
2019-Feb-09 19:29N 30°03' W 093°44'0 0.0
2019-Feb-09 18:56N 30°03' W 093°44'0 0.0
2019-Feb-09 18:17N 30°03' W 093°44'0 0.0
2019-Feb-09 17:17N 30°03' W 093°44'0 0.0
2019-Feb-09 16:53N 30°03' W 093°44'0 0.0
2019-Feb-09 16:29N 30°03' W 093°44'0 0.0
2019-Feb-09 15:59N 30°03' W 093°44'0 0.0
2019-Feb-09 15:17N 30°03' W 093°44'0 0.0
2019-Feb-09 14:41N 30°03' W 093°44'0 0.0
2019-Feb-09 14:29N 30°03' W 093°44'0 0.0
2019-Feb-09 13:44N 30°03' W 093°44'0 0.0
2019-Feb-09 13:26N 30°03' W 093°44'0 0.0
2019-Feb-09 12:56N 30°03' W 093°44'0 0.0
2019-Feb-09 12:26N 30°03' W 093°44'0 0.0
2019-Feb-09 11:56N 30°03' W 093°44'0 0.0
2019-Feb-09 11:29N 30°03' W 093°44'0 0.0
2019-Feb-09 10:56N 30°03' W 093°44'0 0.0
2019-Feb-09 10:14N 30°03' W 093°44'0 0.0
2019-Feb-09 09:59N 30°03' W 093°44'0 0.0
2019-Feb-09 09:26N 30°03' W 093°44'0 0.0
2019-Feb-09 08:49N 30°03' W 093°44'0 0.0
2019-Feb-09 08:28N 30°03' W 093°44'0 0.0
2019-Feb-09 07:49N 30°03' W 093°44'0 0.0
2019-Feb-09 07:28N 30°03' W 093°44'0 0.0
2019-Feb-09 06:58N 30°03' W 093°44'0 0.0
2019-Feb-09 06:22N 30°03' W 093°44'0 0.0
2019-Feb-09 05:58N 30°03' W 093°44'0 0.0
2019-Feb-09 05:25N 30°03' W 093°44'0 0.0
2019-Feb-09 04:58N 30°03' W 093°44'0 0.0
2019-Feb-09 04:25N 30°03' W 093°44'0 0.0
2019-Feb-09 03:58N 30°03' W 093°44'0 0.0
2019-Feb-09 03:28N 30°03' W 093°44'0 0.0
2019-Feb-09 02:46N 30°03' W 093°44'  
Track history (hours):
 
Tides and Currents Weather Stations Pressure Air Temp Water Temp Dewpoint Dewpoint Depression Visibility Wind Speed Wind Dir Waves Ship Positions

Capt Al Devall

Owner: J & J DEVALL MARITIME MARINE OPERATORS, Sulphur, LA. More information available from US FCC via Universal Licensing System and Coast Guard Vessel Documentation Center.

Last reported at 2019-Feb-19 02:31 UTC. Time now 2019-Feb-20 18:40 UTC.
Position N 29°36' W 094°24'.

; draft 3 m.

Type: Towing. MMSI: 366972270.

Date/timePositionNaut miles runAvg speedWind from/ knotsBaromVisibWave heightAir tempDewpointWater temp
2019-Feb-19 02:31N 29°36' W 094°24'1 5.8
2019-Feb-19 02:22N 29°36' W 094°23'2 5.6
2019-Feb-19 01:58N 29°37' W 094°21'3 6.1
2019-Feb-19 01:30N 29°38' W 094°18'3 6.3
2019-Feb-19 01:00N 29°40' W 094°15'3 6.6
2019-Feb-19 00:30N 29°41' W 094°11'3 6.7
2019-Feb-19 00:00N 29°43' W 094°08'4 7.2
2019-Feb-18 23:30N 29°45' W 094°05'4 7.3
2019-Feb-18 23:00N 29°47' W 094°01'3 6.4
2019-Feb-18 22:30N 29°49' W 093°59'0 0.7
2019-Feb-18 21:59N 29°49' W 093°58'0 0.0
2019-Feb-18 21:29N 29°49' W 093°58'0 0.0
2019-Feb-18 20:59N 29°49' W 093°58'1 1.6
2019-Feb-18 20:31N 29°50' W 093°57'3 6.0
2019-Feb-18 20:01N 29°52' W 093°56'3 6.9
2019-Feb-18 19:31N 29°55' W 093°53'3 6.1
2019-Feb-18 19:01N 29°58' W 093°51'3 5.9
2019-Feb-18 18:31N 29°59' W 093°48'4 7.5
2019-Feb-18 18:00N 30°01' W 093°45'2 4.1
2019-Feb-18 17:28N 30°03' W 093°44'0 0.1
2019-Feb-18 16:35N 30°03' W 093°44'0 0.1
2019-Feb-18 16:16N 30°03' W 093°44'0 0.0
2019-Feb-18 15:49N 30°03' W 093°44'0 0.0
2019-Feb-18 15:01N 30°03' W 093°44'0 0.0
2019-Feb-18 14:58N 30°03' W 093°44'0 0.0
2019-Feb-18 14:13N 30°03' W 093°44'0 0.0
2019-Feb-18 13:46N 30°03' W 093°44'0 0.0
2019-Feb-18 13:28N 30°03' W 093°44'0 0.0
2019-Feb-18 13:00N 30°03' W 093°44'0 0.0
2019-Feb-18 12:24N 30°03' W 093°44'0 0.0
2019-Feb-18 12:00N 30°03' W 093°44'0 0.0
2019-Feb-18 11:18N 30°03' W 093°44'0 0.0
2019-Feb-18 11:00N 30°03' W 093°44'0 0.0
2019-Feb-18 10:24N 30°03' W 093°44'0 0.0
2019-Feb-18 09:48N 30°03' W 093°44'0 0.0
2019-Feb-18 08:54N 30°03' W 093°44'0 0.0
2019-Feb-18 08:30N 30°03' W 093°44'0 0.0
2019-Feb-18 07:42N 30°03' W 093°44'0 0.0
2019-Feb-18 07:30N 30°03' W 093°44'0 0.0
2019-Feb-18 07:00N 30°03' W 093°44'0 0.0
2019-Feb-18 06:27N 30°03' W 093°44'0 0.0
2019-Feb-18 05:42N 30°03' W 093°44'0 0.0
2019-Feb-18 05:24N 30°03' W 093°44'0 0.0
2019-Feb-18 04:54N 30°03' W 093°44'0 0.2
2019-Feb-18 04:24N 30°03' W 093°44'0 0.0
2019-Feb-18 04:00N 30°03' W 093°44'0 0.0
2019-Feb-18 03:15N 30°03' W 093°44'0 0.0
2019-Feb-18 02:54N 30°03' W 093°44'0 0.0
2019-Feb-18 02:30N 30°03' W 093°44'0 0.0
2019-Feb-18 02:00N 30°03' W 093°44'0 0.0
2019-Feb-18 01:27N 30°03' W 093°44'0 0.0
2019-Feb-18 00:54N 30°03' W 093°44'0 0.0
2019-Feb-18 00:30N 30°03' W 093°44'0 0.0
2019-Feb-17 23:51N 30°03' W 093°44'0 0.0
2019-Feb-17 23:27N 30°03' W 093°44'0 0.0
2019-Feb-17 23:00N 30°03' W 093°44'0 0.0
2019-Feb-17 22:30N 30°03' W 093°44'0 0.0
2019-Feb-17 21:54N 30°03' W 093°44'0 0.0
2019-Feb-17 21:30N 30°03' W 093°44'0 0.0
2019-Feb-17 21:00N 30°03' W 093°44'0 0.0
2019-Feb-17 20:27N 30°03' W 093°44'1 1.2
2019-Feb-17 20:00N 30°04' W 093°45'1 0.8
2019-Feb-17 19:20N 30°03' W 093°44'0 0.2
2019-Feb-17 18:59N 30°03' W 093°44'0 0.2
2019-Feb-17 18:28N 30°03' W 093°44'0 0.0
2019-Feb-17 17:49N 30°03' W 093°44'0 0.0
2019-Feb-17 17:25N 30°03' W 093°44'0 0.0
2019-Feb-17 16:58N 30°03' W 093°44'0 0.0
2019-Feb-17 16:28N 30°03' W 093°44'0 0.0
2019-Feb-17 15:49N 30°03' W 093°44'0 0.0
2019-Feb-17 15:19N 30°03' W 093°44'0 0.0
2019-Feb-17 14:58N 30°03' W 093°44'0 0.0
2019-Feb-17 14:28N 30°03' W 093°44'0 0.0
2019-Feb-17 13:58N 30°03' W 093°44'0 0.0
2019-Feb-17 13:19N 30°03' W 093°44'0 0.0
2019-Feb-17 12:01N 30°03' W 093°44'0 0.1
2019-Feb-17 11:58N 30°03' W 093°44'0 0.0
2019-Feb-17 11:04N 30°03' W 093°44'0 0.0
2019-Feb-17 10:28N 30°03' W 093°44'0 0.0
2019-Feb-17 09:40N 30°03' W 093°44'0 0.0
2019-Feb-17 09:07N 30°03' W 093°44'0 0.0
2019-Feb-17 08:22N 30°03' W 093°44'0 0.0
2019-Feb-17 07:58N 30°03' W 093°44'0 0.0
2019-Feb-17 07:22N 30°03' W 093°44'0 0.0
2019-Feb-17 06:55N 30°03' W 093°44'0 0.0
2019-Feb-17 06:01N 30°03' W 093°44'0 0.0
2019-Feb-17 05:49N 30°03' W 093°44'0 0.0
2019-Feb-17 05:19N 30°03' W 093°44'0 0.0
2019-Feb-17 04:22N 30°03' W 093°44'0 0.0
2019-Feb-17 03:46N 30°03' W 093°44'0 0.0
2019-Feb-17 03:28N 30°03' W 093°44'0 0.0
2019-Feb-17 02:52N 30°03' W 093°44'0 0.0
2019-Feb-17 02:25N 30°03' W 093°44'0 0.0
2019-Feb-17 01:49N 30°03' W 093°44'0 0.0
2019-Feb-17 01:22N 30°03' W 093°44'0 0.0
2019-Feb-17 00:52N 30°03' W 093°44'0 0.0
2019-Feb-17 00:04N 30°03' W 093°44'0 0.0
2019-Feb-16 23:55N 30°03' W 093°44'0 0.0
2019-Feb-16 23:28N 30°03' W 093°44'0 0.0
2019-Feb-16 22:52N 30°03' W 093°44'0 0.1
2019-Feb-16 22:01N 30°03' W 093°44'0 0.0
2019-Feb-16 21:58N 30°03' W 093°44'0 0.0
2019-Feb-16 21:22N 30°03' W 093°44'0 0.0
2019-Feb-16 20:55N 30°03' W 093°44'0 0.0
2019-Feb-16 20:28N 30°03' W 093°44'0 0.0
2019-Feb-16 19:55N 30°03' W 093°44'0 0.0
2019-Feb-16 19:28N 30°03' W 093°44'0 0.0
2019-Feb-16 18:55N 30°03' W 093°44'0 0.0
2019-Feb-16 18:28N 30°03' W 093°44'0 0.0
2019-Feb-16 17:58N 30°03' W 093°44'0 0.0
2019-Feb-16 17:10N 30°03' W 093°44'0 0.0
2019-Feb-16 16:58N 30°03' W 093°44'0 0.0
2019-Feb-16 16:25N 30°03' W 093°44'0 0.0
2019-Feb-16 15:55N 30°03' W 093°44'0 0.0
2019-Feb-16 15:28N 30°03' W 093°44'0 0.0
2019-Feb-16 14:58N 30°03' W 093°44'0 0.0
2019-Feb-16 14:28N 30°03' W 093°44'0 0.0
2019-Feb-16 13:58N 30°03' W 093°44'0 0.0
2019-Feb-16 13:25N 30°03' W 093°44'0 0.0
2019-Feb-16 12:55N 30°03' W 093°44'0 0.0
2019-Feb-16 12:28N 30°03' W 093°44'0 0.0
2019-Feb-16 11:52N 30°03' W 093°44'0 0.0
2019-Feb-16 11:28N 30°03' W 093°44'0 0.0
2019-Feb-16 10:58N 30°03' W 093°44'0 0.0
2019-Feb-16 10:28N 30°03' W 093°44'0 0.0
2019-Feb-16 09:58N 30°03' W 093°44'0 0.0
2019-Feb-16 09:28N 30°03' W 093°44'0 0.0
2019-Feb-16 08:58N 30°03' W 093°44'0 0.0
2019-Feb-16 08:22N 30°03' W 093°44'0 0.0
2019-Feb-16 07:58N 30°03' W 093°44'0 0.0
2019-Feb-16 07:28N 30°03' W 093°44'0 0.0
2019-Feb-16 06:58N 30°03' W 093°44'0 0.0
2019-Feb-16 06:25N 30°03' W 093°44'0 0.0
2019-Feb-16 05:58N 30°03' W 093°44'0 0.0
2019-Feb-16 05:25N 30°03' W 093°44'0 0.0
2019-Feb-16 04:55N 30°03' W 093°44'0 0.0
2019-Feb-16 04:25N 30°03' W 093°44'0 0.0
2019-Feb-16 03:37N 30°03' W 093°44'0 0.0
2019-Feb-16 03:28N 30°03' W 093°44'0 0.0
2019-Feb-16 02:55N 30°03' W 093°44'0 0.0
2019-Feb-16 02:25N 30°03' W 093°44'0 0.0
2019-Feb-16 01:55N 30°03' W 093°44'0 0.0
2019-Feb-16 01:25N 30°03' W 093°44'0 0.1
2019-Feb-16 00:46N 30°03' W 093°44'0 0.2
2019-Feb-16 00:29N 30°03' W 093°44'1 1.1
2019-Feb-15 23:49N 30°04' W 093°45'0 0.0
2019-Feb-15 23:13N 30°04' W 093°45'0 0.0
2019-Feb-15 22:49N 30°04' W 093°45'0 0.0
2019-Feb-15 22:01N 30°04' W 093°45'0 0.0
2019-Feb-15 21:37N 30°04' W 093°45'0 0.5
2019-Feb-15 21:20N 30°04' W 093°45'1 1.1
2019-Feb-15 20:46N 30°03' W 093°44'0 0.0
2019-Feb-15 20:19N 30°03' W 093°44'0 0.0
2019-Feb-15 19:52N 30°03' W 093°44'0 0.0
2019-Feb-15 19:25N 30°03' W 093°44'0 0.0
2019-Feb-15 18:58N 30°03' W 093°44'0 0.0
2019-Feb-15 18:22N 30°03' W 093°44'0 0.0
2019-Feb-15 17:46N 30°03' W 093°44'0 0.0
2019-Feb-15 17:19N 30°03' W 093°44'0 0.0
2019-Feb-15 16:58N 30°03' W 093°44'0 0.0
2019-Feb-15 16:22N 30°03' W 093°44'0 0.0
2019-Feb-15 15:58N 30°03' W 093°44'1 1.3
2019-Feb-15 15:30N 30°04' W 093°45'1 1.1
2019-Feb-15 14:57N 30°03' W 093°44'0 0.5
2019-Feb-15 14:29N 30°04' W 093°44'0 0.4
2019-Feb-15 13:58N 30°03' W 093°44'0 0.0
2019-Feb-15 13:25N 30°03' W 093°44'0 0.0
2019-Feb-15 12:55N 30°03' W 093°44'0 0.0
2019-Feb-15 12:22N 30°03' W 093°44'0 0.0
2019-Feb-15 11:55N 30°03' W 093°44'0 0.0
2019-Feb-15 11:28N 30°03' W 093°44'0 0.0
2019-Feb-15 10:58N 30°03' W 093°44'0 0.0
2019-Feb-15 10:28N 30°03' W 093°44'0 0.0
2019-Feb-15 09:40N 30°03' W 093°44'0 0.0
2019-Feb-15 09:28N 30°03' W 093°44'0 0.0
2019-Feb-15 08:22N 30°03' W 093°44'0 0.0
2019-Feb-15 07:49N 30°03' W 093°44'0 0.1
2019-Feb-15 06:36N 30°03' W 093°44'1 4.9
2019-Feb-15 06:29N 30°03' W 093°44'3 7.0
2019-Feb-15 06:00N 30°04' W 093°40'4 7.1
2019-Feb-15 05:30N 30°04' W 093°36'3 6.8
2019-Feb-15 05:00N 30°04' W 093°32'3 6.3
2019-Feb-15 04:30N 30°04' W 093°28'3 5.3
2019-Feb-15 04:00N 30°04' W 093°25'3 5.6
2019-Feb-15 03:30N 30°04' W 093°22'0 0.2
2019-Feb-15 03:00N 30°04' W 093°22'3 5.2
2019-Feb-15 02:30N 30°04' W 093°25'3 5.3
2019-Feb-15 02:00N 30°04' W 093°28'4 7.1
2019-Feb-15 01:30N 30°04' W 093°32'4 7.5
2019-Feb-15 01:01N 30°04' W 093°37'4 8.2
2019-Feb-15 00:30N 30°04' W 093°41'3 6.1
2019-Feb-15 00:00N 30°04' W 093°45'0 0.1
2019-Feb-14 23:30N 30°04' W 093°45'1 1.1
2019-Feb-14 22:56N 30°03' W 093°44'0 0.2
2019-Feb-14 22:29N 30°03' W 093°44'0 0.0
2019-Feb-14 21:56N 30°03' W 093°44'0 0.0
2019-Feb-14 21:26N 30°03' W 093°44'0 0.0
2019-Feb-14 20:56N 30°03' W 093°44'0 0.0
2019-Feb-14 19:56N 30°03' W 093°44'1 0.8
2019-Feb-14 19:04N 30°04' W 093°45'1 2.9
2019-Feb-14 18:50N 30°03' W 093°44'0 0.0
2019-Feb-14 18:26N 30°03' W 093°44'0 0.0
2019-Feb-14 17:50N 30°03' W 093°44'0 0.0
2019-Feb-14 17:26N 30°03' W 093°44'0 0.0
2019-Feb-14 16:47N 30°03' W 093°44'0 0.0
2019-Feb-14 16:26N 30°03' W 093°44'0 0.0
2019-Feb-14 15:59N 30°03' W 093°44'0 0.0
2019-Feb-14 15:26N 30°03' W 093°44'0 0.0
2019-Feb-14 14:59N 30°03' W 093°44'0 0.0
2019-Feb-14 14:29N 30°03' W 093°44'0 0.0
2019-Feb-14 13:59N 30°03' W 093°44'0 0.1
2019-Feb-14 13:29N 30°03' W 093°44'1 1.5
2019-Feb-14 12:59N 30°04' W 093°45'0 0.0
2019-Feb-14 12:29N 30°04' W 093°45'0 0.0
2019-Feb-14 11:56N 30°04' W 093°45'0 0.0
2019-Feb-14 11:29N 30°04' W 093°45'0 0.0
2019-Feb-14 10:56N 30°04' W 093°45'0 0.0
2019-Feb-14 10:29N 30°04' W 093°45'0 0.0
2019-Feb-14 09:56N 30°04' W 093°45'0 0.0
2019-Feb-14 09:26N 30°04' W 093°45'0 0.0
2019-Feb-14 08:53N 30°04' W 093°45'0 0.0
2019-Feb-14 08:29N 30°04' W 093°45'0 0.0
2019-Feb-14 07:53N 30°04' W 093°45'0 0.0
2019-Feb-14 07:29N 30°04' W 093°45'1 1.1
2019-Feb-14 06:52N 30°03' W 093°44'2 4.2
2019-Feb-14 06:29N 30°02' W 093°44'3 6.8
2019-Feb-14 06:01N 29°60' W 093°47'4 7.2
2019-Feb-14 05:30N 29°58' W 093°51'3 6.7
2019-Feb-14 05:00N 29°55' W 093°53'4 7.5
2019-Feb-14 04:30N 29°53' W 093°56'3 7.0
2019-Feb-14 04:01N 29°50' W 093°58'5 5.4
2019-Feb-14 03:01N 29°46' W 094°03'3 6.3
2019-Feb-14 02:30N 29°44' W 094°05'3 6.3
2019-Feb-14 02:01N 29°42' W 094°08'3 6.1
2019-Feb-14 01:31N 29°41' W 094°11'3 6.2
2019-Feb-14 01:00N 29°40' W 094°15'3 6.0
2019-Feb-14 00:30N 29°38' W 094°18'3 4.7
2019-Feb-13 23:54N 29°37' W 094°21'2 5.5
2019-Feb-13 23:27N 29°36' W 094°23'25 6.1
2019-Feb-13 19:24N 29°22' W 094°47'2 4.1
2019-Feb-13 19:00N 29°23' W 094°49'5 5.8
2019-Feb-13 18:05N 29°28' W 094°51'0 6.2
2019-Feb-13 18:00N 29°28' W 094°51'3 6.2
2019-Feb-13 17:30N 29°31' W 094°53'3 6.2
2019-Feb-13 17:01N 29°34' W 094°55'3 6.7
2019-Feb-13 16:30N 29°37' W 094°57'3 6.4
2019-Feb-13 16:01N 29°37' W 095°01'0 0.6
2019-Feb-13 15:29N 29°36' W 095°01'0 0.0
2019-Feb-13 14:59N 29°36' W 095°01'0 0.0
2019-Feb-13 14:29N 29°36' W 095°01'0 0.0
2019-Feb-13 13:59N 29°36' W 095°01'0 0.0
2019-Feb-13 13:29N 29°36' W 095°01'0 0.1
2019-Feb-13 12:50N 29°36' W 095°01'0 0.1
2019-Feb-13 12:11N 29°36' W 095°01'0 0.0
2019-Feb-13 11:59N 29°36' W 095°01'0 0.0
2019-Feb-13 11:29N 29°36' W 095°01'0 0.0
2019-Feb-13 10:53N 29°36' W 095°01'0 0.0
2019-Feb-13 10:26N 29°36' W 095°01'0 0.0
2019-Feb-13 09:59N 29°36' W 095°01'0 0.0
2019-Feb-13 09:29N 29°36' W 095°01'0 0.0
2019-Feb-13 08:56N 29°36' W 095°01'0 0.0
2019-Feb-13 08:29N 29°36' W 095°01'0 0.0
2019-Feb-13 07:59N 29°36' W 095°01'0 0.0
2019-Feb-13 07:29N 29°36' W 095°01'0 0.0
2019-Feb-13 06:59N 29°36' W 095°01'0 0.0
2019-Feb-13 06:29N 29°36' W 095°01'0 0.0
2019-Feb-13 05:59N 29°36' W 095°01'0 0.0
2019-Feb-13 05:29N 29°36' W 095°01'0 0.0
2019-Feb-13 04:59N 29°36' W 095°01'0 0.0
2019-Feb-13 04:29N 29°36' W 095°01'0 0.0
2019-Feb-13 03:59N 29°36' W 095°01'0 0.0
2019-Feb-13 03:29N 29°36' W 095°01'0 0.0
2019-Feb-13 02:59N 29°36' W 095°01'0 0.0
2019-Feb-13 02:26N 29°36' W 095°01'0 0.0
2019-Feb-13 01:56N 29°36' W 095°01'0 0.0
2019-Feb-13 01:29N 29°36' W 095°01'0 0.0
2019-Feb-13 00:59N 29°36' W 095°01'0 0.0
2019-Feb-13 00:29N 29°36' W 095°01'0 0.0
2019-Feb-12 23:59N 29°36' W 095°01'0 0.0
2019-Feb-12 23:29N 29°36' W 095°01'0 0.0
2019-Feb-12 22:56N 29°36' W 095°01'0 0.0
2019-Feb-12 22:29N 29°36' W 095°01'0 0.0
2019-Feb-12 21:59N 29°36' W 095°01'0 0.0
2019-Feb-12 21:26N 29°36' W 095°01'0 0.0
2019-Feb-12 20:59N 29°36' W 095°01'0 0.0
2019-Feb-12 20:29N 29°36' W 095°01'0 0.0
2019-Feb-12 19:59N 29°36' W 095°01'0 0.0
2019-Feb-12 19:29N 29°36' W 095°01'0 0.0
2019-Feb-12 18:59N 29°36' W 095°01'0 0.0
2019-Feb-12 18:29N 29°36' W 095°01'0 0.0
2019-Feb-12 17:59N 29°36' W 095°01'0 0.5
2019-Feb-12 17:28N 29°37' W 095°01'2 4.9
2019-Feb-12 17:00N 29°37' W 094°58'3 6.0
2019-Feb-12 16:27N 29°35' W 094°56'5 6.8
2019-Feb-12 15:45N 29°31' W 094°53'8 6.5
2019-Feb-12 14:34N 29°24' W 094°49'1 6.0
2019-Feb-12 14:29N 29°23' W 094°49'2 4.4
2019-Feb-12 13:59N 29°23' W 094°46'2 0.6
2019-Feb-12 10:58N 29°24' W 094°45'0 0.0
2019-Feb-12 09:34N 29°24' W 094°45'0 0.1
2019-Feb-12 09:28N 29°24' W 094°45'0 0.0
2019-Feb-12 02:28N 29°24' W 094°45'0 0.0
2019-Feb-11 23:52N 29°24' W 094°45'0 0.0
2019-Feb-11 14:56N 29°25' W 094°44'0 0.0
2019-Feb-11 14:26N 29°25' W 094°44'0 0.0
2019-Feb-11 03:58N 29°25' W 094°44'11 0.9
2019-Feb-10 14:55N 29°30' W 094°33'2 4.3
2019-Feb-10 14:28N 29°31' W 094°31'3 1.6
2019-Feb-10 12:42N 29°33' W 094°28'1 3.9
2019-Feb-10 12:24N 29°34' W 094°28'2 4.4
2019-Feb-10 12:00N 29°34' W 094°26'2 3.7
2019-Feb-10 11:30N 29°36' W 094°25'2 3.0
2019-Feb-10 10:42N 29°36' W 094°22'0 0.0
2019-Feb-10 10:30N 29°36' W 094°22'0 0.1
2019-Feb-10 10:00N 29°36' W 094°22'0 0.4
2019-Feb-10 09:30N 29°36' W 094°22'1 2.9
2019-Feb-10 09:00N 29°37' W 094°20'2 4.6
2019-Feb-10 08:30N 29°38' W 094°18'3 5.7
2019-Feb-10 08:00N 29°39' W 094°15'3 6.1
2019-Feb-10 07:30N 29°41' W 094°12'3 5.1
2019-Feb-10 07:00N 29°42' W 094°09'1 2.0
2019-Feb-10 06:30N 29°42' W 094°08'3 6.3
2019-Feb-10 06:00N 29°44' W 094°05'3 6.3
2019-Feb-10 05:30N 29°46' W 094°03'2 4.9
2019-Feb-10 05:00N 29°48' W 094°00'2 4.3
2019-Feb-10 04:30N 29°49' W 093°59'0 0.2
2019-Feb-10 04:00N 29°49' W 093°58'1 2.2
2019-Feb-10 03:30N 29°50' W 093°57'3 5.4
2019-Feb-10 03:00N 29°52' W 093°56'3 6.4
2019-Feb-10 02:30N 29°55' W 093°54'3 6.6
2019-Feb-10 02:00N 29°57' W 093°52'2 4.5
2019-Feb-10 01:30N 29°59' W 093°49'3 6.7
2019-Feb-10 01:01N 30°00' W 093°46'3 6.4
2019-Feb-10 00:30N 30°03' W 093°44'1 1.2
2019-Feb-09 23:59N 30°03' W 093°44'0 0.1
2019-Feb-09 23:31N 30°03' W 093°44'0 0.1
2019-Feb-09 22:59N 30°03' W 093°44'0 0.0
2019-Feb-09 22:29N 30°03' W 093°44'0 0.0
2019-Feb-09 21:59N 30°03' W 093°44'0 0.0
2019-Feb-09 21:29N 30°03' W 093°44'0 0.0
2019-Feb-09 20:59N 30°03' W 093°44'0 0.0
2019-Feb-09 20:29N 30°03' W 093°44'0 0.0
2019-Feb-09 19:59N 30°03' W 093°44'0 0.0
2019-Feb-09 19:29N 30°03' W 093°44'0 0.0
2019-Feb-09 18:56N 30°03' W 093°44'0 0.0
2019-Feb-09 18:17N 30°03' W 093°44'0 0.0
2019-Feb-09 17:17N 30°03' W 093°44'0 0.0
2019-Feb-09 16:53N 30°03' W 093°44'0 0.0
2019-Feb-09 16:29N 30°03' W 093°44'0 0.0
2019-Feb-09 15:59N 30°03' W 093°44'0 0.0
2019-Feb-09 15:17N 30°03' W 093°44'0 0.0
2019-Feb-09 14:41N 30°03' W 093°44'0 0.0
2019-Feb-09 14:29N 30°03' W 093°44'0 0.0
2019-Feb-09 13:44N 30°03' W 093°44'0 0.0
2019-Feb-09 13:26N 30°03' W 093°44'0 0.0
2019-Feb-09 12:56N 30°03' W 093°44'0 0.0
2019-Feb-09 12:26N 30°03' W 093°44'0 0.0
2019-Feb-09 11:56N 30°03' W 093°44'0 0.0
2019-Feb-09 11:29N 30°03' W 093°44'0 0.0
2019-Feb-09 10:56N 30°03' W 093°44'0 0.0
2019-Feb-09 10:14N 30°03' W 093°44'0 0.0
2019-Feb-09 09:59N 30°03' W 093°44'0 0.0
2019-Feb-09 09:26N 30°03' W 093°44'0 0.0
2019-Feb-09 08:49N 30°03' W 093°44'0 0.0
2019-Feb-09 08:28N 30°03' W 093°44'0 0.0
2019-Feb-09 07:49N 30°03' W 093°44'0 0.0
2019-Feb-09 07:28N 30°03' W 093°44'0 0.0
2019-Feb-09 06:58N 30°03' W 093°44'0 0.0
2019-Feb-09 06:22N 30°03' W 093°44'0 0.0
2019-Feb-09 05:58N 30°03' W 093°44'0 0.0
2019-Feb-09 05:25N 30°03' W 093°44'0 0.0
2019-Feb-09 04:58N 30°03' W 093°44'0 0.0
2019-Feb-09 04:25N 30°03' W 093°44'0 0.0
2019-Feb-09 03:58N 30°03' W 093°44'0 0.0
2019-Feb-09 03:28N 30°03' W 093°44'0 0.0
2019-Feb-09 02:46N 30°03' W 093°44'  

Dump ship's entire track history